Time;durP1;ratioP1;P1;durP2;ratioP2;P2;SDS_P1;SDS_P2;PMS_P1;PMS_P2;Temp;Humidity;BMP_temperature;BMP_pressure;BME280_temperature;BME280_humidity;BME280_pressure;Samples;Min_cycle;Max_cycle;Signal;HPM_P1;HPM_P2
2022/07/27 00:02:22;;;;;;;2.98;1.85;;;;;;;15.68;66.75;100088.21;2072815;84;20970;-71
2022/07/27 00:05:23;;;;;;;4.15;1.60;;;;;;;15.63;66.73;100087.95;2051972;85;21029;-70
2022/07/27 00:08:25;;;;;;;1.75;1.65;;;;;;;15.57;67.19;100086.08;2072629;85;21056;-70
2022/07/27 00:11:26;;;;;;;2.77;1.80;;;;;;;15.48;67.47;100076.56;2080323;84;21045;-70
2022/07/27 00:14:27;;;;;;;4.67;1.57;;;;;;;15.42;67.54;100083.53;2097229;84;21558;-71
2022/07/27 00:17:28;;;;;;;2.15;1.47;;;;;;;15.37;67.28;100082.48;2093605;83;21467;-70
2022/07/27 00:20:31;;;;;;;4.37;1.90;;;;;;;15.34;67.27;100079.69;2093525;84;21064;-70
2022/07/27 00:23:33;;;;;;;1.80;1.70;;;;;;;15.31;67.64;100079.27;2093459;83;21032;-71
2022/07/27 00:26:34;;;;;;;3.00;2.15;;;;;;;15.29;67.90;100082.16;2093603;84;21634;-70
2022/07/27 00:29:35;;;;;;;2.17;1.80;;;;;;;15.30;68.41;100084.31;2100139;83;20993;-71
2022/07/27 00:32:36;;;;;;;9.63;2.30;;;;;;;15.28;68.17;100081.00;2095748;83;21033;-70
2022/07/27 00:35:37;;;;;;;2.98;1.42;;;;;;;15.20;67.88;100097.53;2094043;84;21092;-70
2022/07/27 00:38:38;;;;;;;4.65;2.22;;;;;;;15.15;68.00;100102.64;2099717;84;21068;-71
2022/07/27 00:41:39;;;;;;;4.00;1.95;;;;;;;15.05;67.84;100104.83;2094441;84;21129;-70
2022/07/27 00:44:40;;;;;;;2.35;1.77;;;;;;;14.98;67.83;100114.15;2096609;84;22188;-70
2022/07/27 00:47:41;;;;;;;2.67;1.70;;;;;;;14.98;68.00;100106.65;2096887;84;21072;-70
2022/07/27 00:50:43;;;;;;;4.05;1.90;;;;;;;14.94;68.15;100109.38;2093448;84;21088;-70
2022/07/27 00:53:47;;;;;;;3.15;2.08;;;;;;;14.94;68.15;100109.38;2095530;84;20985;-70
2022/07/27 00:56:49;;;;;;;4.03;1.87;;;;;;;14.91;68.36;100107.10;2090492;84;21080;-69
2022/07/27 00:59:50;;;;;;;3.83;1.67;;;;;;;14.90;68.21;100108.13;2093452;84;21096;-69
2022/07/27 01:02:51;;;;;;;3.60;1.92;;;;;;;14.84;68.15;100119.57;2091279;84;21088;-69
2022/07/27 01:05:53;;;;;;;2.08;1.82;;;;;;;14.79;68.40;100119.66;2095633;84;20986;-70
2022/07/27 01:09:55;;;;;;;4.72;2.15;;;;;;;14.78;68.38;100118.02;2094007;83;21057;-70
2022/07/27 01:11:59;;;;;;;4.58;2.08;;;;;;;14.76;68.63;100116.05;2078818;84;21092;-68
2022/07/27 01:15:00;;;;;;;6.85;1.80;;;;;;;14.73;68.95;100116.43;2072706;85;21029;-71
2022/07/27 01:18:01;;;;;;;4.83;1.50;;;;;;;14.69;68.78;100113.00;2072681;85;21052;-68
2022/07/27 01:21:06;;;;;;;2.08;1.47;;;;;;;14.66;68.55;100120.88;2073369;85;22262;-68
2022/07/27 01:24:08;;;;;;;4.95;1.72;;;;;;;14.60;68.51;100114.98;2073972;84;22208;-69
2022/07/27 01:27:10;;;;;;;5.65;1.70;;;;;;;14.54;68.24;100119.25;2074134;85;21024;-69
2022/07/27 01:30:29;;;;;;;4.78;2.00;;;;;;;14.47;68.27;100126.36;2072740;85;21006;-68
2022/07/27 01:33:30;;;;;;;2.58;1.70;;;;;;;14.42;68.36;100123.95;2074186;84;21084;-70
2022/07/27 01:36:31;;;;;;;6.65;1.80;;;;;;;14.36;68.67;100120.20;2073419;85;20955;-70
2022/07/27 01:39:33;;;;;;;11.05;1.77;;;;;;;14.28;68.55;100110.47;2073777;85;21108;-70
2022/07/27 01:42:34;;;;;;;15.85;2.55;;;;;;;14.22;68.49;100106.39;2074802;85;21025;-71
2022/07/27 01:45:35;;;;;;;7.25;1.70;;;;;;;14.14;68.60;100111.36;2073962;85;22342;-70
2022/07/27 01:48:36;;;;;;;5.70;2.02;;;;;;;14.13;68.88;100113.21;2074279;85;21022;-70
2022/07/27 01:51:37;;;;;;;3.15;1.20;;;;;;;14.15;68.92;100113.00;2074324;85;21089;-70
2022/07/27 01:54:38;;;;;;;16.37;2.00;;;;;;;14.15;68.87;100113.00;2073994;85;21060;-71
2022/07/27 01:57:39;;;;;;;4.90;2.60;;;;;;;14.09;68.71;100112.44;2074164;85;21009;-70
2022/07/27 02:00:41;;;;;;;5.58;1.95;;;;;;;13.99;69.34;100114.58;2074209;85;21076;-70
2022/07/27 02:03:41;;;;;;;4.80;2.22;;;;;;;13.97;69.53;100117.45;2076133;84;21045;-71
2022/07/27 02:06:42;;;;;;;2.60;1.72;;;;;;;13.93;70.00;100116.16;2073707;85;21484;-70
2022/07/27 02:09:44;;;;;;;2.87;1.90;;;;;;;13.90;70.02;100115.20;2073510;85;21096;-70
2022/07/27 02:12:46;;;;;;;4.50;2.22;;;;;;;13.89;69.92;100118.38;2088152;84;21080;-70
2022/07/27 02:15:47;;;;;;;2.72;2.33;;;;;;;13.87;70.11;100116.41;2097301;84;21081;-70
2022/07/27 02:18:48;;;;;;;6.28;2.20;;;;;;;13.72;70.61;100118.29;2091665;84;20974;-70
2022/07/27 02:21:49;;;;;;;3.30;2.20;;;;;;;13.74;70.60;100124.75;2094395;84;21064;-70
2022/07/27 02:24:50;;;;;;;2.37;1.80;;;;;;;13.76;70.96;100130.22;2095814;84;21032;-70
2022/07/27 02:27:51;;;;;;;2.27;1.98;;;;;;;13.79;71.04;100129.84;2094496;84;20965;-70
2022/07/27 02:30:52;;;;;;;4.42;2.30;;;;;;;13.80;71.00;100133.36;2095516;84;22215;-70
2022/07/27 02:33:53;;;;;;;2.50;1.95;;;;;;;13.81;71.06;100135.83;2095344;84;21052;-69
2022/07/27 02:36:54;;;;;;;4.80;2.10;;;;;;;13.85;71.07;100140.27;2095243;84;21389;-69
2022/07/27 02:39:55;;;;;;;4.90;2.20;;;;;;;13.81;70.97;100142.49;2090959;84;21117;-70
2022/07/27 02:42:56;;;;;;;3.85;2.12;;;;;;;13.78;71.14;100136.20;2098959;84;21536;-70
2022/07/27 02:45:56;;;;;;;5.33;2.00;;;;;;;13.81;71.46;100133.67;2094437;83;21580;-70
2022/07/27 02:48:57;;;;;;;4.90;2.30;;;;;;;13.79;71.38;100137.84;2096103;84;21508;-71
2022/07/27 02:51:59;;;;;;;6.40;2.40;;;;;;;13.84;71.47;100139.45;2097943;83;21052;-71
2022/07/27 02:55:00;;;;;;;5.55;2.27;;;;;;;13.88;71.72;100146.56;2091867;84;21969;-70
2022/07/27 02:58:01;;;;;;;7.28;2.37;;;;;;;13.88;71.63;100154.08;2097683;83;21032;-70
2022/07/27 03:01:04;;;;;;;6.55;1.90;;;;;;;13.88;71.66;100144.74;2094832;84;21143;-70
2022/07/27 03:04:05;;;;;;;5.10;2.37;;;;;;;13.94;71.59;100143.65;2093550;84;21000;-72
2022/07/27 03:07:07;;;;;;;6.10;2.17;;;;;;;13.92;71.59;100141.70;2095671;84;21056;-70
2022/07/27 03:10:09;;;;;;;5.12;2.27;;;;;;;13.92;71.62;100147.03;2094522;84;21115;-70
2022/07/27 03:13:10;;;;;;;3.77;2.10;;;;;;;13.89;71.60;100146.39;2079753;84;21097;-70
2022/07/27 03:16:11;;;;;;;4.85;2.90;;;;;;;13.91;71.75;100143.55;2071746;85;21060;-70
2022/07/27 03:19:12;;;;;;;2.90;2.45;;;;;;;13.92;72.17;100147.03;2073862;85;21013;-70
2022/07/27 03:22:13;;;;;;;2.95;2.22;;;;;;;13.94;72.58;100136.98;2074053;85;21038;-70
2022/07/27 03:25:14;;;;;;;3.37;2.40;;;;;;;13.94;72.32;100143.65;2073307;85;21045;-70
2022/07/27 03:28:15;;;;;;;2.95;2.27;;;;;;;13.92;72.51;100150.52;2073296;85;21080;-70
2022/07/27 03:31:16;;;;;;;4.53;2.15;;;;;;;13.92;72.70;100147.86;2074499;84;21025;-70
2022/07/27 03:34:17;;;;;;;11.40;2.42;;;;;;;13.94;72.60;100156.98;2073429;85;21070;-70
2022/07/27 03:37:18;;;;;;;8.85;2.40;;;;;;;13.96;72.74;100162.97;2074580;86;21060;-70
2022/07/27 03:40:20;;;;;;;6.17;2.17;;;;;;;14.03;72.96;100162.55;2073537;85;21064;-70
2022/07/27 03:43:21;;;;;;;4.80;2.60;;;;;;;14.07;72.89;100150.47;2072930;85;21065;-69
2022/07/27 03:46:22;;;;;;;4.90;2.58;;;;;;;14.11;72.81;100165.11;2073670;85;21024;-72
2022/07/27 03:49:26;;;;;;;4.72;2.42;;;;;;;14.13;72.93;100168.39;2073947;85;21013;-70
2022/07/27 03:52:27;;;;;;;8.38;2.30;;;;;;;14.15;73.11;100158.87;2074250;85;21552;-72
2022/07/27 03:55:29;;;;;;;3.22;2.30;;;;;;;14.15;73.22;100149.54;2073634;85;21590;-70
2022/07/27 03:58:30;;;;;;;9.13;2.27;;;;;;;14.21;73.41;100148.78;2073661;85;21115;-70
2022/07/27 04:01:31;;;;;;;6.78;2.95;;;;;;;14.29;73.47;100153.48;2073818;84;21617;-70
2022/07/27 04:04:32;;;;;;;3.22;2.27;;;;;;;14.37;73.49;100155.72;2073061;86;21006;-70
2022/07/27 04:07:33;;;;;;;4.12;2.55;;;;;;;14.47;73.61;100156.21;2073231;85;21049;-71
2022/07/27 04:10:34;;;;;;;4.17;2.00;;;;;;;14.54;73.63;100149.13;2073631;85;21579;-70
2022/07/27 04:13:35;;;;;;;3.65;2.05;;;;;;;14.60;73.84;100147.03;2073455;85;21041;-70
2022/07/27 04:16:36;;;;;;;6.78;3.25;;;;;;;14.71;73.97;100143.02;2073392;85;21018;-72
2022/07/27 04:19:37;;;;;;;4.08;2.75;;;;;;;14.81;74.24;100140.84;2072567;85;21041;-74
2022/07/27 04:22:39;;;;;;;3.65;3.30;;;;;;;14.88;74.30;100138.21;2072167;85;21663;-74
2022/07/27 04:25:40;;;;;;;6.55;3.25;;;;;;;15.04;74.51;100139.27;2071729;85;21009;-74
2022/07/27 04:28:41;;;;;;;3.50;3.20;;;;;;;15.16;74.40;100135.02;2073599;85;21477;-74
2022/07/27 04:31:42;;;;;;;7.35;3.42;;;;;;;15.24;74.51;100129.52;2071890;84;21618;-74
2022/07/27 04:34:43;;;;;;;8.18;3.37;;;;;;;15.33;74.54;100121.34;2072745;85;21421;-73
2022/07/27 04:37:44;;;;;;;4.50;3.22;;;;;;;15.47;74.87;100122.53;2074176;85;21056;-73
2022/07/27 04:40:45;;;;;;;5.58;3.40;;;;;;;15.47;74.87;100122.53;2073819;85;21419;-79
2022/07/27 04:43:46;;;;;;;4.40;3.10;;;;;;;15.64;74.82;100123.53;2073355;85;20997;-73
2022/07/27 04:46:47;;;;;;;3.92;3.30;;;;;;;15.80;74.92;100133.11;2072169;85;21057;-72
2022/07/27 04:49:48;;;;;;;5.33;3.60;;;;;;;15.86;74.70;100133.12;2071549;85;21024;-73
2022/07/27 04:52:49;;;;;;;5.50;3.35;;;;;;;15.97;74.83;100129.03;2073905;85;21282;-73
2022/07/27 04:55:50;;;;;;;5.08;3.40;;;;;;;16.08;74.84;100133.80;2071340;85;21081;-71
2022/07/27 04:58:51;;;;;;;5.35;3.90;;;;;;;16.20;74.85;100131.35;2071834;84;21334;-72
2022/07/27 05:01:52;;;;;;;4.47;3.15;;;;;;;16.31;74.86;100136.11;2074008;84;21542;-72
2022/07/27 05:04:53;;;;;;;6.22;4.20;;;;;;;16.38;74.77;100135.28;2071558;85;20990;-72
2022/07/27 05:07:54;;;;;;;4.83;4.08;;;;;;;16.43;74.65;100137.66;2072497;86;22199;-71
2022/07/27 05:10:56;;;;;;;5.62;4.03;;;;;;;16.51;74.56;100134.78;2071493;85;21044;-72
2022/07/27 05:13:57;;;;;;;5.10;3.80;;;;;;;16.57;74.38;100130.47;2072059;85;21049;-71
2022/07/27 05:16:58;;;;;;;6.37;3.70;;;;;;;16.66;74.32;100133.76;2046800;86;21029;-71
2022/07/27 05:19:59;;;;;;;4.50;3.92;;;;;;;16.78;74.40;100130.79;2071618;85;20998;-72
2022/07/27 05:23:00;;;;;;;6.22;3.70;;;;;;;16.97;74.25;100136.65;2072347;85;21016;-71
2022/07/27 05:26:01;;;;;;;4.37;3.52;;;;;;;17.17;74.27;100142.50;2073447;85;21080;-71
2022/07/27 05:29:02;;;;;;;7.33;4.28;;;;;;;17.35;74.18;100139.18;2072444;85;21038;-72
2022/07/27 05:32:04;;;;;;;4.85;3.90;;;;;;;17.42;73.57;100139.45;2073484;84;21636;-72
2022/07/27 05:35:09;;;;;;;7.55;3.75;;;;;;;17.49;73.39;100140.78;2072730;84;21043;-72
2022/07/27 05:38:10;;;;;;;5.03;3.75;;;;;;;17.52;73.28;100144.91;2073302;84;21026;-72
2022/07/27 05:41:11;;;;;;;6.30;3.90;;;;;;;17.63;73.37;100152.30;2071986;84;21335;-72
2022/07/27 05:44:11;;;;;;;6.83;3.80;;;;;;;17.75;73.31;100164.53;2071233;84;21051;-73
2022/07/27 05:47:13;;;;;;;7.28;4.15;;;;;;;18.35;72.80;100183.34;2070799;85;21042;-71
2022/07/27 05:50:17;;;;;;;12.30;4.60;;;;;;;18.35;72.80;100183.34;2071898;85;21662;-72
2022/07/27 05:53:18;;;;;;;7.33;3.25;;;;;;;18.50;72.63;100176.34;2071587;84;21028;-72
2022/07/27 05:56:19;;;;;;;6.53;4.00;;;;;;;18.68;72.35;100171.55;2071560;84;21041;-71
2022/07/27 05:59:20;;;;;;;8.33;3.90;;;;;;;18.94;72.23;100180.47;2070624;85;21096;-73
2022/07/27 06:02:21;;;;;;;5.33;3.60;;;;;;;19.07;71.84;100174.17;2071969;84;21028;-73
2022/07/27 06:05:22;;;;;;;7.72;4.03;;;;;;;19.20;71.51;100169.48;2072243;85;21519;-74
2022/07/27 06:08:23;;;;;;;5.22;3.95;;;;;;;19.36;71.24;100164.56;2071472;84;21042;-73
2022/07/27 06:11:24;;;;;;;6.12;4.35;;;;;;;19.53;70.89;100154.84;2072812;85;21038;-74
2022/07/27 06:14:26;;;;;;;7.58;4.37;;;;;;;19.72;70.48;100164.30;2085227;83;21113;-73
2022/07/27 06:17:27;;;;;;;3.70;3.40;;;;;;;19.72;69.92;100165.64;2090765;84;21006;-73
2022/07/27 06:20:29;;;;;;;5.37;4.00;;;;;;;19.86;69.73;100169.81;2088799;84;21547;-75
2022/07/27 06:23:30;;;;;;;6.20;3.80;;;;;;;19.97;69.44;100175.78;2067809;84;21080;-74
2022/07/27 06:26:31;;;;;;;5.58;4.12;;;;;;;20.16;69.31;100171.19;2060907;84;21610;-75
2022/07/27 06:29:33;;;;;;;6.17;4.25;;;;;;;20.25;68.48;100177.08;2096028;84;21009;-73
2022/07/27 06:32:34;;;;;;;5.80;4.08;;;;;;;20.20;68.13;100183.14;2090124;83;21123;-76
2022/07/27 06:35:36;;;;;;;5.75;3.47;;;;;;;20.11;68.42;100180.47;2093749;84;21048;-74
2022/07/27 06:38:37;;;;;;;4.12;3.40;;;;;;;20.18;68.50;100180.38;2092034;84;22552;-74
2022/07/27 06:41:38;;;;;;;5.17;3.25;;;;;;;20.23;68.07;100179.16;2091980;84;21001;-75
2022/07/27 06:44:39;;;;;;;4.33;3.50;;;;;;;20.33;68.17;100184.30;2094427;84;21083;-72
2022/07/27 06:47:41;;;;;;;10.58;3.10;;;;;;;20.48;67.92;100177.14;2095302;84;21060;-72
2022/07/27 06:50:43;;;;;;;6.75;3.72;;;;;;;20.53;67.36;100178.65;2094740;83;21032;-72
2022/07/27 06:53:44;;;;;;;5.28;2.95;;;;;;;20.60;67.31;100172.61;2090817;84;20987;-71
2022/07/27 06:56:45;;;;;;;4.92;2.75;;;;;;;20.70;67.09;100176.64;2092286;84;21593;-72
2022/07/27 06:59:47;;;;;;;3.95;3.10;;;;;;;20.67;66.72;100183.84;2094395;83;21531;-72
2022/07/27 07:02:55;;;;;;;4.67;2.90;;;;;;;20.72;66.50;100187.99;2093725;84;20993;-74
2022/07/27 07:05:56;;;;;;;4.70;3.90;;;;;;;20.72;66.65;100187.49;2092444;83;21060;-75
2022/07/27 07:08:58;;;;;;;7.60;2.87;;;;;;;20.68;66.22;100183.59;2095927;84;21071;-76
2022/07/27 07:12:00;;;;;;;4.55;3.20;;;;;;;20.64;66.26;100188.33;2090715;84;21115;-75
2022/07/27 07:15:00;;;;;;;4.87;3.30;;;;;;;20.64;66.01;100186.97;2073194;84;20994;-74
2022/07/27 07:18:03;;;;;;;5.72;2.95;;;;;;;20.50;66.25;100185.01;2072572;85;21069;-75
2022/07/27 07:21:04;;;;;;;4.92;3.25;;;;;;;20.59;66.42;100185.81;2052956;85;21061;-78
2022/07/27 07:24:05;;;;;;;3.83;3.40;;;;;;;20.69;66.08;100179.02;2072835;85;21073;-76
2022/07/27 07:27:06;;;;;;;4.00;3.10;;;;;;;20.73;66.12;100178.88;2072658;85;21060;-75
2022/07/27 07:30:09;;;;;;;3.35;2.85;;;;;;;20.85;65.61;100177.53;2073094;85;21001;-74
2022/07/27 07:33:10;;;;;;;3.92;2.92;;;;;;;20.80;65.65;100179.56;2074111;84;21501;-74
2022/07/27 07:36:11;;;;;;;7.40;3.30;;;;;;;20.84;65.48;100178.59;2072924;85;21100;-73
2022/07/27 07:39:12;;;;;;;3.90;2.80;;;;;;;20.87;65.53;100185.69;2072613;85;21014;-73
2022/07/27 07:42:14;;;;;;;5.95;2.62;;;;;;;21.20;65.53;100191.02;2073128;85;21037;-74
2022/07/27 07:45:15;;;;;;;3.80;2.12;;;;;;;21.62;65.38;100193.59;2067203;86;21529;-73
2022/07/27 07:48:16;;;;;;;3.17;2.37;;;;;;;21.75;64.40;100194.70;2071729;85;21057;-73
2022/07/27 07:51:17;;;;;;;4.33;2.22;;;;;;;21.71;64.05;100186.26;2072439;85;20990;-75
2022/07/27 07:54:18;;;;;;;3.95;2.15;;;;;;;21.66;63.63;100182.63;2073726;85;21041;-71
2022/07/27 07:57:19;;;;;;;3.90;2.45;;;;;;;21.81;63.39;100181.58;2073803;85;21048;-72
2022/07/27 08:00:22;;;;;;;5.12;2.47;;;;;;;21.83;63.37;100184.88;2070927;85;21109;-76
2022/07/27 08:03:23;;;;;;;4.72;2.30;;;;;;;22.09;62.73;100191.59;2071090;84;21527;-73
2022/07/27 08:06:24;;;;;;;3.60;2.40;;;;;;;22.25;62.44;100188.69;2070395;85;21552;-71
2022/07/27 08:09:27;;;;;;;5.33;2.12;;;;;;;22.19;61.34;100193.72;2071761;85;21100;-72
2022/07/27 08:12:28;;;;;;;2.75;2.10;;;;;;;21.88;61.52;100189.56;2073846;85;21552;-74
2022/07/27 08:15:29;;;;;;;3.98;2.35;;;;;;;22.06;61.16;100183.97;2091630;84;21977;-74
2022/07/27 08:18:31;;;;;;;5.37;1.80;;;;;;;22.23;60.54;100181.34;2094151;84;21063;-73
2022/07/27 08:21:32;;;;;;;6.42;2.70;;;;;;;22.52;60.86;100184.83;2090205;84;21060;-73
2022/07/27 08:24:33;;;;;;;6.20;2.08;;;;;;;22.61;60.56;100183.92;2065539;84;21084;-73
2022/07/27 08:27:35;;;;;;;4.47;2.05;;;;;;;23.00;60.10;100185.38;2096393;84;21813;-73
2022/07/27 08:30:37;;;;;;;2.90;2.08;;;;;;;22.97;59.32;100185.87;2092865;83;21052;-73
2022/07/27 08:33:38;;;;;;;2.55;1.80;;;;;;;22.82;59.22;100185.88;2067611;84;21044;-73
2022/07/27 08:36:39;;;;;;;5.35;2.22;;;;;;;22.82;59.19;100189.13;2096166;84;21010;-73
2022/07/27 08:39:40;;;;;;;7.35;2.35;;;;;;;22.64;58.63;100188.00;2093353;84;21032;-71
2022/07/27 08:42:42;;;;;;;6.65;2.47;;;;;;;22.53;58.84;100181.62;2094258;83;21112;-71
2022/07/27 08:45:46;;;;;;;5.65;1.90;;;;;;;22.44;59.17;100189.81;2094081;83;22038;-71
2022/07/27 08:48:47;;;;;;;6.10;2.10;;;;;;;22.40;58.65;100185.97;2094318;83;21045;-72
2022/07/27 08:51:49;;;;;;;4.37;1.90;;;;;;;22.36;58.71;100191.87;2098369;83;21009;-72
2022/07/27 08:54:51;;;;;;;4.60;1.85;;;;;;;22.28;58.72;100186.03;2095391;84;21016;-72
2022/07/27 08:57:52;;;;;;;4.37;2.40;;;;;;;22.02;58.65;100184.68;2095438;84;21075;-72
2022/07/27 09:00:54;;;;;;;3.17;1.82;;;;;;;21.87;58.78;100191.42;2098127;84;21026;-72
2022/07/27 09:03:54;;;;;;;3.67;1.95;;;;;;;21.79;58.69;100193.14;2094174;84;21543;-72
2022/07/27 09:06:55;;;;;;;5.53;1.90;;;;;;;21.74;59.04;100187.66;2093734;84;20998;-72
2022/07/27 09:09:57;;;;;;;2.60;1.80;;;;;;;21.71;58.75;100189.49;2063948;84;21048;-72
2022/07/27 09:12:59;;;;;;;3.67;1.87;;;;;;;21.73;58.99;100183.84;2094816;83;21576;-72
2022/07/27 09:16:05;;;;;;;3.10;1.87;;;;;;;22.06;58.78;100185.31;2096437;84;21116;-72
2022/07/27 09:19:09;;;;;;;3.33;2.00;;;;;;;22.62;58.75;100180.69;2092406;84;21107;-73
2022/07/27 09:22:10;;;;;;;2.85;1.85;;;;;;;23.40;57.87;100181.64;2091218;83;21080;-72
2022/07/27 09:25:15;;;;;;;5.70;1.98;;;;;;;24.12;56.81;100178.74;2094992;83;21653;-73
2022/07/27 09:28:21;;;;;;;4.45;2.20;;;;;;;24.51;56.20;100175.09;2098179;83;21141;-72
2022/07/27 09:31:24;;;;;;;5.28;1.50;;;;;;;24.45;54.62;100174.23;2094031;83;21024;-73
2022/07/27 09:34:29;;;;;;;2.12;1.30;;;;;;;24.42;53.71;100171.19;2091348;84;21032;-73
2022/07/27 09:37:30;;;;;;;1.98;1.40;;;;;;;24.36;53.70;100171.14;2094244;84;21028;-72
2022/07/27 09:40:35;;;;;;;2.55;1.72;;;;;;;24.80;52.27;100174.24;2095046;83;21016;-72
2022/07/27 09:43:46;;;;;;;1.20;0.93;;;;;;;24.84;52.10;100168.59;2090182;84;21059;-73
2022/07/27 09:46:47;;;;;;;1.40;1.20;;;;;;;24.79;51.98;100168.55;2096222;84;21025;-72
2022/07/27 09:49:49;;;;;;;4.72;1.10;;;;;;;24.70;50.82;100173.64;2093639;84;21087;-73
2022/07/27 09:52:50;;;;;;;2.77;1.45;;;;;;;24.36;50.77;100173.04;2096721;83;21789;-72
2022/07/27 09:56:09;;;;;;;3.20;1.60;;;;;;;23.99;50.85;100166.13;2095017;84;21001;-72
2022/07/27 09:59:16;;;;;;;3.20;1.30;;;;;;;23.78;51.39;100171.31;2092765;84;21051;-74
2022/07/27 10:02:17;;;;;;;1.80;1.32;;;;;;;24.43;51.40;100166.88;2096244;84;21093;-72
2022/07/27 10:05:21;;;;;;;6.25;1.87;;;;;;;24.92;49.94;100159.97;2092369;83;21535;-72
2022/07/27 10:08:22;;;;;;;3.55;1.57;;;;;;;25.19;49.92;100157.72;2092126;84;21018;-72
2022/07/27 10:11:24;;;;;;;4.65;1.60;;;;;;;25.61;48.49;100159.02;2092713;84;21552;-72
2022/07/27 10:14:25;;;;;;;5.55;2.22;;;;;;;25.93;49.05;100160.78;2085498;84;22264;-72
2022/07/27 10:17:27;;;;;;;3.87;1.95;;;;;;;26.45;49.04;100152.20;2072695;85;21092;-72
2022/07/27 10:20:30;;;;;;;6.95;2.27;;;;;;;26.36;46.86;100151.37;2074942;85;21583;-72
2022/07/27 10:23:33;;;;;;;3.50;2.27;;;;;;;25.80;47.62;100164.80;2071706;85;21460;-72
2022/07/27 10:26:41;;;;;;;5.65;2.60;;;;;;;25.33;47.66;100168.39;2073059;85;21070;-72
2022/07/27 10:29:43;;;;;;;3.20;2.45;;;;;;;25.44;48.34;100160.57;2073511;85;21512;-72
2022/07/27 10:32:45;;;;;;;10.28;2.50;;;;;;;25.76;47.72;100165.59;2074647;84;21077;-73
2022/07/27 10:35:46;;;;;;;8.45;2.60;;;;;;;25.96;47.37;100160.28;2049940;86;21084;-72
2022/07/27 10:38:56;;;;;;;3.75;2.45;;;;;;;26.15;47.17;100160.57;2072548;85;21099;-73
2022/07/27 10:42:18;;;;;;;3.37;2.00;;;;;;;26.34;46.24;100158.97;2074256;85;22446;-72
2022/07/27 10:45:20;;;;;;;4.47;2.00;;;;;;;26.80;46.49;100163.08;2072912;85;21037;-72
2022/07/27 10:48:40;;;;;;;3.40;2.40;;;;;;;27.05;45.62;100160.06;2073561;85;21064;-72
2022/07/27 10:51:41;;;;;;;3.90;2.63;;;;;;;27.17;44.88;100163.88;2073061;85;21060;-72
2022/07/27 10:54:43;;;;;;;3.05;2.50;;;;;;;27.00;42.83;100165.52;2073860;85;21064;-72
2022/07/27 10:57:44;;;;;;;5.85;2.50;;;;;;;26.30;43.82;100176.09;2070451;85;21061;-72
2022/07/27 11:00:54;;;;;;;4.58;2.50;;;;;;;25.91;43.87;100177.38;2074340;84;21144;-72
2022/07/27 11:04:01;;;;;;;3.27;2.47;;;;;;;25.61;44.37;100177.22;2073300;85;21037;-73
2022/07/27 11:07:02;;;;;;;4.37;2.50;;;;;;;25.30;44.85;100167.56;2070433;85;21018;-72
2022/07/27 11:10:04;;;;;;;4.67;2.40;;;;;;;25.29;44.74;100167.84;2075102;85;21053;-72
2022/07/27 11:13:06;;;;;;;8.60;2.55;;;;;;;25.43;45.05;100170.36;2026323;85;21056;-71
2022/07/27 11:16:10;;;;;;;5.65;2.55;;;;;;;25.73;45.13;100171.02;2071677;85;21666;-71
2022/07/27 11:19:12;;;;;;;7.58;2.65;;;;;;;25.71;44.62;100171.30;2073777;85;21549;-72
2022/07/27 11:22:13;;;;;;;4.67;1.98;;;;;;;25.46;44.29;100176.07;2074622;85;21623;-71
2022/07/27 11:25:14;;;;;;;4.90;2.80;;;;;;;25.16;44.09;100173.98;2074349;85;20994;-71
2022/07/27 11:28:15;;;;;;;4.90;2.33;;;;;;;25.16;43.86;100173.98;2073227;85;21070;-72
2022/07/27 11:31:17;;;;;;;3.45;2.72;;;;;;;25.18;44.28;100172.38;2073786;84;20994;-72
2022/07/27 11:34:37;;;;;;;5.47;2.30;;;;;;;25.06;44.15;100177.98;2073257;85;21124;-71
2022/07/27 11:37:38;;;;;;;4.00;2.20;;;;;;;25.08;43.96;100179.87;2073999;85;21065;-73
2022/07/27 11:40:50;;;;;;;4.75;2.00;;;;;;;25.08;43.80;100181.78;2072916;85;21297;-72
2022/07/27 11:43:52;;;;;;;4.70;2.15;;;;;;;24.89;43.84;100182.72;2048547;86;21492;-72
2022/07/27 11:46:55;;;;;;;8.45;2.85;;;;;;;24.88;44.28;100183.81;2074251;85;21056;-72
2022/07/27 11:50:09;;;;;;;7.92;2.37;;;;;;;25.21;44.34;100181.36;2074187;85;20989;-71
2022/07/27 11:53:11;;;;;;;7.62;2.65;;;;;;;25.27;44.06;100184.38;2074441;86;21112;-72
2022/07/27 11:56:25;;;;;;;5.90;1.98;;;;;;;25.13;44.07;100183.17;2072676;85;21056;-73
2022/07/27 11:59:29;;;;;;;5.83;1.90;;;;;;;25.05;43.75;100185.83;2071011;85;21720;-72
2022/07/27 12:02:30;;;;;;;7.50;1.72;;;;;;;24.82;43.08;100188.38;2072672;85;21072;-72
2022/07/27 12:05:31;;;;;;;5.37;2.00;;;;;;;24.71;43.62;100188.02;2074448;84;21089;-72
2022/07/27 12:08:33;;;;;;;4.65;1.80;;;;;;;24.78;43.95;100183.20;2073782;85;21025;-71
2022/07/27 12:11:53;;;;;;;4.08;1.50;;;;;;;24.81;43.14;100182.69;2072427;85;21085;-71
2022/07/27 12:15:05;;;;;;;7.90;2.72;;;;;;;24.60;42.76;100189.81;2080263;83;21115;-72
2022/07/27 12:18:07;;;;;;;4.10;1.60;;;;;;;24.49;43.35;100183.48;2082977;84;21083;-73
2022/07/27 12:21:18;;;;;;;5.70;1.67;;;;;;;24.51;43.11;100186.76;2098953;84;21000;-72
2022/07/27 12:24:23;;;;;;;6.60;1.77;;;;;;;24.45;42.13;100187.79;2097801;84;21072;-72
2022/07/27 12:27:25;;;;;;;4.15;2.22;;;;;;;24.24;41.78;100186.72;2087443;84;21010;-72
2022/07/27 12:30:40;;;;;;;25.27;5.15;;;;;;;24.02;42.96;100200.84;2095937;84;21131;-73
2022/07/27 12:33:41;;;;;;;4.37;1.85;;;;;;;24.08;42.93;100197.95;2097650;84;20997;-73
2022/07/27 12:36:42;;;;;;;6.95;1.85;;;;;;;23.93;42.30;100194.55;2094427;84;21013;-72
2022/07/27 12:39:46;;;;;;;6.20;1.62;;;;;;;23.76;42.46;100195.66;2095202;84;21170;-72
2022/07/27 12:42:58;;;;;;;4.30;1.40;;;;;;;23.70;41.99;100187.47;2094778;83;21104;-74
2022/07/27 12:46:12;;;;;;;4.60;1.60;;;;;;;23.54;42.18;100185.63;2089191;83;21902;-72
2022/07/27 12:49:15;;;;;;;6.55;2.10;;;;;;;23.32;42.76;100193.71;2094964;84;21487;-72
2022/07/27 12:52:16;;;;;;;12.37;1.87;;;;;;;23.34;43.02;100198.86;2096038;84;21373;-72
2022/07/27 12:55:20;;;;;;;9.78;2.25;;;;;;;23.29;42.96;100201.52;2096657;84;21064;-72
2022/07/27 12:58:22;;;;;;;4.87;1.82;;;;;;;23.33;43.25;100194.53;2093411;84;21685;-74
2022/07/27 13:01:22;;;;;;;7.42;2.10;;;;;;;23.25;42.98;100195.22;2096626;84;20970;-72
2022/07/27 13:04:23;;;;;;;5.00;1.75;;;;;;;23.25;43.43;100195.22;2094073;83;21095;-73
2022/07/27 13:07:25;;;;;;;8.18;1.70;;;;;;;23.29;42.89;100193.41;2063156;84;21073;-72
2022/07/27 13:10:26;;;;;;;6.50;1.82;;;;;;;23.24;42.89;100194.13;2094737;83;21031;-72
2022/07/27 13:13:28;;;;;;;5.75;1.87;;;;;;;23.12;42.89;100194.23;2096088;84;21032;-72
2022/07/27 13:16:29;;;;;;;6.08;1.80;;;;;;;22.97;43.03;100198.04;2079335;84;21072;-71
2022/07/27 13:19:31;;;;;;;5.62;1.92;;;;;;;22.85;43.09;100202.70;2073766;85;20978;-72
2022/07/27 13:22:36;;;;;;;5.15;1.80;;;;;;;22.64;43.11;100198.31;2074140;85;21021;-71
2022/07/27 13:25:38;;;;;;;6.97;1.90;;;;;;;22.51;43.51;100201.31;2074442;85;21096;-73
2022/07/27 13:28:39;;;;;;;6.20;2.33;;;;;;;22.44;43.78;100209.59;2072788;84;21516;-73
2022/07/27 13:31:40;;;;;;;3.20;1.70;;;;;;;22.41;44.10;100205.98;2073268;84;21104;-72
2022/07/27 13:34:42;;;;;;;4.75;1.50;;;;;;;22.33;43.69;100209.92;2073504;85;22053;-72
2022/07/27 13:37:44;;;;;;;5.30;1.37;;;;;;;22.25;44.07;100208.95;2074219;84;21064;-71
2022/07/27 13:40:46;;;;;;;6.20;1.70;;;;;;;22.16;43.27;100213.08;2073855;85;21013;-71
2022/07/27 13:43:47;;;;;;;2.85;1.67;;;;;;;22.05;43.74;100205.84;2074330;85;21076;-72
2022/07/27 13:46:49;;;;;;;3.10;1.30;;;;;;;22.04;43.93;100200.13;2073422;85;21560;-71
2022/07/27 13:49:50;;;;;;;2.55;1.22;;;;;;;22.04;43.75;100203.64;2074136;85;21010;-71
2022/07/27 13:52:51;;;;;;;5.00;1.20;;;;;;;22.05;43.53;100201.78;2073677;85;20966;-72
2022/07/27 13:55:53;;;;;;;10.50;1.60;;;;;;;22.02;43.50;100197.69;2071921;84;21080;-71
2022/07/27 13:58:55;;;;;;;3.47;1.37;;;;;;;22.05;43.46;100205.30;2050774;86;21520;-71
2022/07/27 14:01:56;;;;;;;2.87;1.30;;;;;;;22.10;43.83;100204.56;2074013;84;21610;-71
2022/07/27 14:04:57;;;;;;;3.83;1.90;;;;;;;22.15;43.69;100203.31;2072925;85;21084;-71
2022/07/27 14:07:59;;;;;;;7.97;2.40;;;;;;;22.15;43.26;100197.91;2074462;85;21080;-71